Lutsen Mountain, Minnesota
Current Conditions -  °F | °C
As of 11:34 AM on Friday 19 Dec 2014 (Local Time) from KCKC Reporting Station
Overcast Overcast  
Wind Chill: 14°   Ceiling: 700
Heat Index: 21°   Visibility: 10mi
Dew Point: 18°   Wind: 6mph
Humidity: 86%   Direction: 150°SSE
Pressure: 30.18"   Gusts: NA
Location:  47.66°N, 90.71°W
Report Text: KCKC 191734Z AUTO 15005KT 10SM OVC007 M06/M08 A3018 RMK AO2
Loading
Personal Weather Stations






























Interactive Weather Map New forecast layout! Learn more

10-Day Weather Forecast

Advertisements
Track Severe Weather on mobile